Terminal Aerodrome Forecast
Issued by NWS

Home | Current Version | Previous Version | Text Only | Print | Product List | Glossary On
Versions: 1 2 3 4 5 6 7 8 9 10 11 12 13 14
225
FTAK31 PAJN 261134
TAFAPG
TAF
PAPG 261134Z 2612/2712 VRB03KT P6SM SCT025 OVC035
      TEMPO 2614/2618 -RA SCT015 BKN025 OVC035
     FM261800 05005KT 4SM -RA BR BKN015 OVC025
     FM270300 VRB03KT 6SM -RA BR SCT015 OVC025
     FM270600 VRB03KT P6SM -RA BKN015 OVC025
     FM271000 00000KT P6SM BKN003 OVC007
      AMD LTD TO CLD VIS AND WIND 2612/2615=

USA.gov is the U.S. government's official web portal to all federal, state and local government web resources and services.